createdAt,value
2023-03-24T00:00:30.377Z,59.10
2023-03-24T00:03:34.396Z,60.58
2023-03-24T00:06:37.724Z,66.77
2023-03-24T00:09:45.238Z,62.85
2023-03-24T00:12:48.479Z,58.55
2023-03-24T00:15:51.729Z,54.47
2023-03-24T00:18:55.093Z,55.65
2023-03-24T00:21:58.237Z,55.70
2023-03-24T00:25:04.838Z,53.75
2023-03-24T00:28:08.726Z,52.53
2023-03-24T00:31:15.458Z,53.97
2023-03-24T00:34:18.992Z,53.00
2023-03-24T00:37:22.265Z,53.83
2023-03-24T00:40:25.742Z,49.80
2023-03-24T00:43:32.011Z,47.38
2023-03-24T00:46:35.990Z,44.20
2023-03-24T00:49:48.730Z,41.00
2023-03-24T00:52:52.174Z,37.38
2023-03-24T00:55:55.810Z,37.13
2023-03-24T00:58:59.462Z,39.53
2023-03-24T01:02:02.657Z,42.28
2023-03-24T01:05:07.235Z,41.60
2023-03-24T01:08:11.418Z,40.80
2023-03-24T01:11:14.811Z,23.95
2023-03-24T01:14:18.239Z,27.50
2023-03-24T01:17:26.398Z,19.20
2023-03-24T01:20:34.255Z,18.83
2023-03-24T01:23:39.704Z,16.58
2023-03-24T01:29:46.458Z,13.18
2023-03-24T01:32:49.778Z,7.13
2023-03-24T01:35:53.161Z,9.73
2023-03-24T01:38:59.099Z,8.50
2023-03-24T01:42:02.393Z,6.07
2023-03-24T01:45:42.858Z,6.00
2023-03-24T01:49:03.384Z,5.88
2023-03-24T01:52:16.970Z,5.28
2023-03-24T01:55:20.743Z,4.82
2023-03-24T01:58:31.000Z,6.13
2023-03-24T02:01:53.049Z,5.55
2023-03-24T02:05:18.648Z,7.32
2023-03-24T02:08:28.009Z,7.28
2023-03-24T02:11:37.180Z,5.57
2023-03-24T02:14:41.789Z,5.47
2023-03-24T02:18:19.729Z,6.72
2023-03-24T02:22:00.039Z,6.95
2023-03-24T02:25:28.073Z,6.32
2023-03-24T02:28:47.673Z,6.78
2023-03-24T02:31:53.865Z,6.43
2023-03-24T02:35:13.921Z,7.10
2023-03-24T02:38:20.096Z,7.05
2023-03-24T02:41:29.185Z,7.22
2023-03-24T02:45:08.250Z,8.57
2023-03-24T02:48:38.587Z,5.18
2023-03-24T02:52:01.631Z,6.43
2023-03-24T02:55:23.209Z,5.97
2023-03-24T02:58:36.319Z,6.50
2023-03-24T03:01:54.827Z,6.22
2023-03-24T03:05:28.026Z,7.97
2023-03-24T03:08:34.580Z,8.23
2023-03-24T03:11:40.537Z,6.28
2023-03-24T03:14:52.885Z,5.38
2023-03-24T03:18:11.864Z,5.20
2023-03-24T03:21:18.687Z,6.50
2023-03-24T03:24:33.112Z,6.28
2023-03-24T03:27:39.942Z,4.35
2023-03-24T03:30:47.881Z,6.25
2023-03-24T03:34:00.561Z,6.53
2023-03-24T03:37:38.935Z,6.55
2023-03-24T03:40:53.555Z,6.22
2023-03-24T03:43:59.350Z,5.90
2023-03-24T03:47:02.861Z,6.43
2023-03-24T03:50:14.942Z,4.60
2023-03-24T03:53:21.327Z,4.70
2023-03-24T03:56:28.963Z,3.90
2023-03-24T04:00:16.406Z,2.97
2023-03-24T04:03:53.894Z,3.95
2023-03-24T04:07:36.693Z,2.90
2023-03-24T04:11:22.560Z,3.00
2023-03-24T04:14:51.304Z,2.15
2023-03-24T04:18:50.287Z,3.80
2023-03-24T04:21:59.312Z,3.25
2023-03-24T04:25:41.719Z,2.70
2023-03-24T04:29:02.859Z,3.03
2023-03-24T04:32:11.956Z,4.63
2023-03-24T04:35:32.358Z,4.00
2023-03-24T04:38:54.015Z,3.55
2023-03-24T04:42:14.294Z,3.58
2023-03-24T04:45:18.854Z,3.78
2023-03-24T04:48:49.130Z,4.90
2023-03-24T04:52:08.399Z,3.92
2023-03-24T04:55:50.521Z,3.72
2023-03-24T04:59:14.353Z,4.35
2023-03-24T05:02:21.217Z,4.20
2023-03-24T05:05:33.750Z,4.40
2023-03-24T05:08:37.128Z,4.63
2023-03-24T05:11:40.423Z,4.50
2023-03-24T05:14:45.268Z,4.43
2023-03-24T05:17:48.614Z,5.05
2023-03-24T05:20:52.524Z,4.20
2023-03-24T05:23:58.032Z,5.00
2023-03-24T05:27:01.531Z,5.68
2023-03-24T05:30:07.583Z,6.22
2023-03-24T05:33:12.673Z,4.20
2023-03-24T05:36:16.455Z,4.85
2023-03-24T05:39:25.728Z,5.60
2023-03-24T05:42:38.650Z,5.05
2023-03-24T05:45:42.273Z,3.55
2023-03-24T05:48:48.517Z,3.80
2023-03-24T05:51:53.846Z,4.43
2023-03-24T05:54:57.189Z,3.88
2023-03-24T05:58:04.587Z,3.72
2023-03-24T06:01:26.249Z,3.75
2023-03-24T06:04:37.025Z,3.45
2023-03-24T06:07:47.573Z,3.15
2023-03-24T06:10:50.946Z,3.78
2023-03-24T06:13:54.394Z,4.88
2023-03-24T06:17:00.773Z,4.10
2023-03-24T06:20:06.816Z,2.83
2023-03-24T06:23:36.343Z,3.53
2023-03-24T06:26:45.517Z,2.40
2023-03-24T06:29:49.927Z,3.08
2023-03-24T06:32:53.416Z,2.40
2023-03-24T06:35:56.897Z,2.60
2023-03-24T06:39:06.932Z,3.10
2023-03-24T06:42:13.454Z,3.03
2023-03-24T06:45:17.333Z,3.30
2023-03-24T06:48:25.109Z,3.15
2023-03-24T06:51:35.515Z,3.38
2023-03-24T06:54:40.546Z,3.08
2023-03-24T06:57:45.473Z,3.60
2023-03-24T07:01:15.614Z,2.80
2023-03-24T07:04:38.846Z,3.42
2023-03-24T07:11:15.592Z,5.75
2023-03-24T07:14:29.129Z,3.53
2023-03-24T07:17:34.238Z,2.80
2023-03-24T07:21:06.735Z,2.80
2023-03-24T07:24:11.741Z,2.85
2023-03-24T07:27:44.273Z,2.88
2023-03-24T07:30:48.837Z,2.33
2023-03-24T07:33:56.029Z,2.10
2023-03-24T07:37:01.639Z,2.80
2023-03-24T07:40:14.124Z,2.60
2023-03-24T07:43:18.171Z,2.70
2023-03-24T07:46:44.030Z,2.78
2023-03-24T07:49:47.803Z,2.40
2023-03-24T07:52:51.639Z,2.50
2023-03-24T07:55:57.184Z,2.92
2023-03-24T07:59:01.208Z,2.45
2023-03-24T08:02:23.376Z,2.38
2023-03-24T08:05:45.054Z,2.55
2023-03-24T08:08:55.148Z,2.60
2023-03-24T08:12:00.588Z,2.63
2023-03-24T08:15:11.308Z,2.88
2023-03-24T08:18:14.932Z,3.40
2023-03-24T08:21:18.554Z,3.30
2023-03-24T08:24:21.887Z,2.80
2023-03-24T08:27:25.155Z,2.67
2023-03-24T08:30:28.981Z,2.67
2023-03-24T08:33:32.735Z,4.05
2023-03-24T08:36:36.757Z,3.05
2023-03-24T08:39:39.985Z,2.88
2023-03-24T08:42:43.508Z,2.67
2023-03-24T08:45:47.052Z,3.17
2023-03-24T08:48:50.568Z,3.10
2023-03-24T08:51:54.062Z,3.30
2023-03-24T08:54:57.408Z,3.63
2023-03-24T08:58:00.939Z,2.78
2023-03-24T09:01:04.306Z,2.65
2023-03-24T09:04:07.595Z,2.70
2023-03-24T09:07:11.855Z,2.85
2023-03-24T09:10:16.030Z,3.35
2023-03-24T09:13:21.663Z,3.67
2023-03-24T09:16:25.451Z,3.90
2023-03-24T09:19:28.856Z,4.13
2023-03-24T09:22:32.016Z,5.00
2023-03-24T09:25:35.243Z,5.75
2023-03-24T09:28:42.194Z,5.90
2023-03-24T09:31:45.683Z,5.15
2023-03-24T09:34:49.406Z,3.53
2023-03-24T09:37:52.881Z,3.05
2023-03-24T09:41:03.993Z,3.28
2023-03-24T09:44:39.544Z,5.68
2023-03-24T09:47:49.592Z,7.72
2023-03-24T09:51:07.543Z,9.80
2023-03-24T09:54:28.029Z,12.10
2023-03-24T09:57:40.330Z,13.48
2023-03-24T10:00:46.808Z,10.95
2023-03-24T10:03:50.258Z,7.90
2023-03-24T10:07:07.325Z,7.93
2023-03-24T10:10:34.520Z,8.10
2023-03-24T10:13:57.624Z,8.95
2023-03-24T10:17:13.477Z,14.23
2023-03-24T10:20:39.288Z,15.82
2023-03-24T10:24:10.304Z,12.43
2023-03-24T10:27:41.241Z,16.13
2023-03-24T10:30:46.948Z,10.77
2023-03-24T10:33:54.023Z,13.90
2023-03-24T10:37:00.370Z,11.25
2023-03-24T10:40:09.410Z,15.75
2023-03-24T10:43:13.134Z,12.07
2023-03-24T10:46:20.925Z,13.85
2023-03-24T10:49:25.650Z,22.27
2023-03-24T10:52:39.514Z,14.85
2023-03-24T10:55:44.926Z,12.13
2023-03-24T10:58:48.936Z,8.70
2023-03-24T11:02:01.554Z,5.45
2023-03-24T11:05:18.545Z,11.55
2023-03-24T11:08:29.267Z,9.43
2023-03-24T11:11:33.104Z,9.00
2023-03-24T11:14:45.688Z,8.80
2023-03-24T11:17:54.886Z,7.68
2023-03-24T11:21:06.048Z,9.38
2023-03-24T11:24:16.524Z,7.20
2023-03-24T11:27:20.646Z,8.32
2023-03-24T11:30:24.612Z,5.90
2023-03-24T11:33:35.320Z,9.30
2023-03-24T11:36:47.843Z,10.88
2023-03-24T11:40:12.911Z,9.90
2023-03-24T11:43:22.656Z,8.00
2023-03-24T11:46:27.235Z,6.70
2023-03-24T11:49:33.989Z,3.33
2023-03-24T11:53:03.175Z,4.35
2023-03-24T11:56:32.073Z,4.13
2023-03-24T11:59:58.886Z,3.88
2023-03-24T12:03:25.515Z,2.50
2023-03-24T12:06:44.224Z,4.22
2023-03-24T12:10:08.484Z,4.05
2023-03-24T12:13:31.760Z,4.13
2023-03-24T12:16:42.157Z,6.68
2023-03-24T12:20:11.773Z,7.07
2023-03-24T12:23:27.279Z,7.60
2023-03-24T12:26:32.310Z,7.72
2023-03-24T12:30:06.224Z,4.97
2023-03-24T12:33:09.316Z,5.18
2023-03-24T12:36:32.460Z,5.25
2023-03-24T12:39:46.215Z,5.00
2023-03-24T12:43:05.248Z,5.28
2023-03-24T12:46:16.545Z,4.93
2023-03-24T12:49:20.007Z,6.30
2023-03-24T12:56:17.237Z,6.18
2023-03-24T12:59:28.093Z,7.72
2023-03-24T13:02:43.513Z,6.68
2023-03-24T13:05:51.904Z,5.22
2023-03-24T13:09:26.440Z,5.30
2023-03-24T13:12:34.466Z,5.80
2023-03-24T13:15:46.735Z,4.68
2023-03-24T13:19:00.754Z,6.80
2023-03-24T13:22:07.612Z,6.27
2023-03-24T13:25:30.895Z,8.25
2023-03-24T13:28:46.440Z,6.85
2023-03-24T13:31:58.365Z,5.32
2023-03-24T13:35:35.511Z,5.15
2023-03-24T13:38:48.734Z,4.60
2023-03-24T13:41:54.944Z,4.00
2023-03-24T13:45:07.613Z,4.20
2023-03-24T13:48:11.102Z,8.45
2023-03-24T13:51:22.870Z,4.38
2023-03-24T13:54:29.676Z,4.82
2023-03-24T13:57:33.031Z,4.82
2023-03-24T14:01:06.979Z,4.40
2023-03-24T14:04:51.415Z,2.72
2023-03-24T14:08:06.916Z,2.80
2023-03-24T14:11:42.317Z,2.97
2023-03-24T14:15:15.651Z,2.78
2023-03-24T14:18:25.333Z,4.53
2023-03-24T14:21:35.488Z,2.70
2023-03-24T14:24:39.663Z,3.65
2023-03-24T14:27:45.530Z,3.53
2023-03-24T14:31:16.181Z,3.20
2023-03-24T14:34:21.988Z,4.55
2023-03-24T14:37:27.886Z,3.60
2023-03-24T14:40:43.875Z,2.95
2023-03-24T14:43:47.315Z,3.55
2023-03-24T14:46:52.406Z,4.43
2023-03-24T14:49:57.361Z,4.22
2023-03-24T14:53:03.880Z,4.13
2023-03-24T14:56:16.034Z,4.20
2023-03-24T14:59:44.544Z,3.83
2023-03-24T15:03:11.694Z,5.75
2023-03-24T15:06:20.230Z,9.70
2023-03-24T15:09:23.336Z,7.07
2023-03-24T15:12:26.572Z,6.13
2023-03-24T15:15:29.938Z,4.63
2023-03-24T15:18:33.721Z,4.38
2023-03-24T15:21:40.015Z,4.90
2023-03-24T15:24:45.590Z,8.75
2023-03-24T15:27:52.770Z,4.88
2023-03-24T15:30:59.785Z,4.22
2023-03-24T15:34:24.891Z,4.07
2023-03-24T15:40:58.593Z,4.57
2023-03-24T15:44:01.782Z,4.13
2023-03-24T15:47:07.108Z,4.85
2023-03-24T15:50:33.565Z,4.95
2023-03-24T15:53:49.791Z,4.97
2023-03-24T15:57:03.497Z,2.17
2023-03-24T16:00:15.256Z,2.00
2023-03-24T16:03:18.670Z,2.70
2023-03-24T16:06:35.901Z,2.38
2023-03-24T16:09:41.572Z,2.05
2023-03-24T16:12:44.819Z,2.95
2023-03-24T16:16:00.042Z,2.88
2023-03-24T16:19:04.139Z,2.33
2023-03-24T16:22:12.539Z,2.15
2023-03-24T16:25:16.192Z,2.83
2023-03-24T16:28:22.412Z,7.07
2023-03-24T16:31:27.432Z,4.38
2023-03-24T16:34:30.787Z,2.92
2023-03-24T16:37:33.990Z,2.60
2023-03-24T16:40:42.405Z,2.67
2023-03-24T16:43:46.908Z,2.05
2023-03-24T16:46:52.691Z,3.70
2023-03-24T16:49:55.870Z,4.40
2023-03-24T16:52:59.137Z,3.42
2023-03-24T16:56:02.305Z,6.53
2023-03-24T16:59:06.749Z,6.05
2023-03-24T17:02:11.067Z,4.05
2023-03-24T17:05:42.119Z,3.72
2023-03-24T17:08:45.593Z,4.32
2023-03-24T17:11:52.299Z,5.68
2023-03-24T17:14:55.548Z,8.70
2023-03-24T17:17:59.057Z,11.20
2023-03-24T17:21:02.333Z,12.55
2023-03-24T17:24:07.590Z,12.68
2023-03-24T17:27:19.316Z,9.20
2023-03-24T17:30:24.910Z,3.10
2023-03-24T17:33:28.177Z,6.55
2023-03-24T17:36:31.364Z,5.28
2023-03-24T17:39:34.759Z,8.95
2023-03-24T17:42:43.901Z,7.28
2023-03-24T17:45:49.002Z,9.18
2023-03-24T17:48:52.158Z,10.35
2023-03-24T17:51:55.339Z,8.75
2023-03-24T17:54:58.493Z,6.63
2023-03-24T17:58:01.799Z,6.90
2023-03-24T18:01:09.515Z,10.38
2023-03-24T18:04:12.782Z,12.30
2023-03-24T18:07:16.249Z,12.82
2023-03-24T18:10:19.577Z,14.82
2023-03-24T18:13:22.811Z,15.70
2023-03-24T18:16:28.885Z,18.03
2023-03-24T18:19:32.218Z,18.27
2023-03-24T18:22:35.363Z,15.25
2023-03-24T18:25:38.547Z,17.77
2023-03-24T18:28:42.912Z,17.98
2023-03-24T18:34:51.050Z,17.60
2023-03-24T18:37:54.425Z,18.13
2023-03-24T18:41:05.288Z,18.70
2023-03-24T18:44:12.927Z,17.35
2023-03-24T18:47:16.777Z,17.45
2023-03-24T18:50:19.957Z,16.30
2023-03-24T18:53:25.128Z,15.40
2023-03-24T18:56:28.894Z,13.95
2023-03-24T18:59:32.175Z,13.25
2023-03-24T19:02:35.490Z,13.15
2023-03-24T19:05:38.762Z,13.73
2023-03-24T19:08:47.637Z,9.45
2023-03-24T19:11:51.105Z,11.35
2023-03-24T19:14:56.676Z,10.70
2023-03-24T19:18:05.315Z,9.05
2023-03-24T19:21:12.034Z,9.80
2023-03-24T19:24:17.655Z,7.82
2023-03-24T19:27:20.879Z,7.13
2023-03-24T19:30:24.143Z,6.57
2023-03-24T19:33:28.093Z,7.10
2023-03-24T19:36:31.246Z,5.45
2023-03-24T19:39:35.109Z,6.80
2023-03-24T19:42:44.056Z,6.75
2023-03-24T19:45:51.786Z,5.28
2023-03-24T19:48:55.104Z,3.42
2023-03-24T19:51:58.960Z,4.00
2023-03-24T19:55:03.040Z,4.75
2023-03-24T19:58:06.569Z,4.40
2023-03-24T20:01:09.837Z,8.20
2023-03-24T20:04:13.040Z,17.35
2023-03-24T20:07:18.355Z,9.75
2023-03-24T20:10:21.921Z,5.43
2023-03-24T20:13:29.783Z,4.90
2023-03-24T20:16:32.885Z,3.83
2023-03-24T20:19:36.110Z,3.92
2023-03-24T20:22:46.450Z,3.25
2023-03-24T20:25:50.585Z,4.15
2023-03-24T20:31:57.558Z,3.47
2023-03-24T20:35:00.897Z,2.53
2023-03-24T20:38:04.129Z,3.08
2023-03-24T20:41:08.756Z,3.25
2023-03-24T20:44:12.135Z,4.78
2023-03-24T20:47:15.348Z,2.67
2023-03-24T20:50:19.031Z,3.70
2023-03-24T20:53:22.748Z,3.90
2023-03-24T20:56:26.165Z,4.13
2023-03-24T20:59:29.463Z,3.10
2023-03-24T21:02:32.799Z,3.80
2023-03-24T21:05:36.544Z,4.40
2023-03-24T21:08:43.261Z,3.30
2023-03-24T21:11:48.179Z,3.83
2023-03-24T21:14:52.104Z,2.60
2023-03-24T21:17:56.054Z,2.88
2023-03-24T21:21:04.497Z,3.35
2023-03-24T21:24:08.012Z,1.10
2023-03-24T21:27:11.436Z,1.92
2023-03-24T21:30:15.586Z,1.40
2023-03-24T21:33:18.837Z,4.13
2023-03-24T21:36:24.086Z,4.88
2023-03-24T21:39:27.561Z,4.45
2023-03-24T21:42:31.571Z,4.07
2023-03-24T21:45:36.710Z,2.72
2023-03-24T21:48:40.767Z,2.42
2023-03-24T21:51:43.983Z,3.45
2023-03-24T21:54:47.187Z,4.28
2023-03-24T21:57:51.917Z,2.40
2023-03-24T22:00:56.334Z,2.78
2023-03-24T22:03:59.632Z,2.25
2023-03-24T22:07:07.413Z,2.07
2023-03-24T22:10:15.116Z,8.73
2023-03-24T22:13:18.306Z,9.13
2023-03-24T22:16:21.668Z,2.40
2023-03-24T22:19:24.929Z,2.80
2023-03-24T22:22:28.185Z,4.63
2023-03-24T22:25:31.788Z,2.60
2023-03-24T22:28:36.153Z,3.78
2023-03-24T22:31:42.789Z,3.40
2023-03-24T22:34:46.012Z,4.55
2023-03-24T22:37:49.361Z,2.17
2023-03-24T22:40:56.641Z,2.77
2023-03-24T22:43:59.902Z,3.13
2023-03-24T22:47:06.382Z,2.80
2023-03-24T22:50:12.597Z,2.10
2023-03-24T22:53:16.357Z,2.40
2023-03-24T22:56:19.605Z,3.03
2023-03-24T22:59:23.080Z,2.47
2023-03-24T23:02:26.578Z,2.38
2023-03-24T23:05:30.040Z,2.78
2023-03-24T23:08:38.196Z,3.03
2023-03-24T23:11:42.522Z,2.58
2023-03-24T23:14:46.959Z,1.70
2023-03-24T23:17:51.907Z,3.40
2023-03-24T23:21:07.670Z,4.00
2023-03-24T23:24:11.680Z,5.25
2023-03-24T23:27:15.612Z,6.85
2023-03-24T23:30:22.451Z,7.78
2023-03-24T23:33:26.265Z,7.20
2023-03-24T23:36:29.707Z,7.40
2023-03-24T23:39:34.502Z,8.50
2023-03-24T23:42:38.393Z,7.88
2023-03-24T23:45:42.063Z,7.47
2023-03-24T23:48:45.448Z,7.60
2023-03-24T23:51:48.829Z,9.45
2023-03-24T23:54:54.950Z,10.18
2023-03-24T23:57:57.999Z,12.43
